sensor_id;sensor_type;location;lat;lon;timestamp;P1;durP1;ratioP1;P2;durP2;ratioP2
32894;SDS011;19251;49.484;8.260;2022-12-18T00:02:01;46.53;;;21.73;;
32894;SDS011;19251;49.484;8.260;2022-12-18T00:07:04;40.20;;;17.83;;
32894;SDS011;19251;49.484;8.260;2022-12-18T00:12:06;46.70;;;21.10;;
32894;SDS011;19251;49.484;8.260;2022-12-18T00:17:16;45.90;;;22.53;;
32894;SDS011;19251;49.484;8.260;2022-12-18T00:22:18;48.73;;;20.27;;
32894;SDS011;19251;49.484;8.260;2022-12-18T00:27:20;45.63;;;21.20;;
32894;SDS011;19251;49.484;8.260;2022-12-18T00:32:22;44.60;;;20.53;;
32894;SDS011;19251;49.484;8.260;2022-12-18T00:37:25;56.47;;;22.10;;
32894;SDS011;19251;49.484;8.260;2022-12-18T00:42:27;46.93;;;20.60;;
32894;SDS011;19251;49.484;8.260;2022-12-18T00:47:48;46.87;;;21.43;;
32894;SDS011;19251;49.484;8.260;2022-12-18T00:52:50;45.10;;;21.47;;
32894;SDS011;19251;49.484;8.260;2022-12-18T00:57:53;45.43;;;21.37;;
32894;SDS011;19251;49.484;8.260;2022-12-18T01:02:55;45.43;;;20.83;;
32894;SDS011;19251;49.484;8.260;2022-12-18T01:07:58;44.93;;;18.70;;
32894;SDS011;19251;49.484;8.260;2022-12-18T01:13:01;43.13;;;19.93;;
32894;SDS011;19251;49.484;8.260;2022-12-18T01:18:03;48.97;;;21.97;;
32894;SDS011;19251;49.484;8.260;2022-12-18T01:23:07;49.47;;;20.03;;
32894;SDS011;19251;49.484;8.260;2022-12-18T01:28:09;41.80;;;19.07;;
32894;SDS011;19251;49.484;8.260;2022-12-18T01:33:11;44.17;;;19.40;;
32894;SDS011;19251;49.484;8.260;2022-12-18T01:38:13;41.80;;;20.40;;
32894;SDS011;19251;49.484;8.260;2022-12-18T01:43:15;53.97;;;23.43;;
32894;SDS011;19251;49.484;8.260;2022-12-18T01:48:17;52.53;;;21.23;;
32894;SDS011;19251;49.484;8.260;2022-12-18T01:53:21;54.33;;;21.80;;
32894;SDS011;19251;49.484;8.260;2022-12-18T01:58:29;51.03;;;21.83;;
32894;SDS011;19251;49.484;8.260;2022-12-18T02:03:52;54.93;;;22.17;;
32894;SDS011;19251;49.484;8.260;2022-12-18T02:09:11;53.17;;;22.70;;
32894;SDS011;19251;49.484;8.260;2022-12-18T02:14:28;47.43;;;19.57;;
32894;SDS011;19251;49.484;8.260;2022-12-18T02:25:19;51.17;;;21.33;;
32894;SDS011;19251;49.484;8.260;2022-12-18T02:30:49;49.10;;;22.00;;
32894;SDS011;19251;49.484;8.260;2022-12-18T02:35:54;49.13;;;21.83;;
32894;SDS011;19251;49.484;8.260;2022-12-18T02:40:59;48.20;;;19.80;;
32894;SDS011;19251;49.484;8.260;2022-12-18T02:51:50;46.73;;;19.33;;
32894;SDS011;19251;49.484;8.260;2022-12-18T02:57:02;45.70;;;21.33;;
32894;SDS011;19251;49.484;8.260;2022-12-18T03:02:20;53.87;;;20.50;;
32894;SDS011;19251;49.484;8.260;2022-12-18T03:07:58;41.33;;;18.70;;
32894;SDS011;19251;49.484;8.260;2022-12-18T03:13:10;44.10;;;20.83;;
32894;SDS011;19251;49.484;8.260;2022-12-18T03:19:01;46.35;;;19.77;;
32894;SDS011;19251;49.484;8.260;2022-12-18T03:23:48;47.47;;;21.03;;
32894;SDS011;19251;49.484;8.260;2022-12-18T03:28:57;44.30;;;20.57;;
32894;SDS011;19251;49.484;8.260;2022-12-18T03:34:15;40.33;;;19.37;;
32894;SDS011;19251;49.484;8.260;2022-12-18T03:39:23;56.00;;;22.60;;
32894;SDS011;19251;49.484;8.260;2022-12-18T03:44:32;55.97;;;23.03;;
32894;SDS011;19251;49.484;8.260;2022-12-18T03:55:19;47.93;;;21.33;;
32894;SDS011;19251;49.484;8.260;2022-12-18T04:00:24;52.10;;;21.73;;
32894;SDS011;19251;49.484;8.260;2022-12-18T04:05:27;47.40;;;19.23;;
32894;SDS011;19251;49.484;8.260;2022-12-18T04:10:31;51.30;;;21.57;;
32894;SDS011;19251;49.484;8.260;2022-12-18T04:15:35;53.97;;;22.07;;
32894;SDS011;19251;49.484;8.260;2022-12-18T04:20:39;44.53;;;21.20;;
32894;SDS011;19251;49.484;8.260;2022-12-18T04:25:42;47.87;;;20.93;;
32894;SDS011;19251;49.484;8.260;2022-12-18T04:30:44;58.07;;;22.33;;
32894;SDS011;19251;49.484;8.260;2022-12-18T04:35:51;53.23;;;21.80;;
32894;SDS011;19251;49.484;8.260;2022-12-18T04:40:53;54.83;;;22.03;;
32894;SDS011;19251;49.484;8.260;2022-12-18T04:46:03;57.70;;;25.93;;
32894;SDS011;19251;49.484;8.260;2022-12-18T04:51:05;50.60;;;22.07;;
32894;SDS011;19251;49.484;8.260;2022-12-18T04:56:09;49.50;;;20.93;;
32894;SDS011;19251;49.484;8.260;2022-12-18T05:01:14;49.50;;;20.47;;
32894;SDS011;19251;49.484;8.260;2022-12-18T05:06:18;47.63;;;21.70;;
32894;SDS011;19251;49.484;8.260;2022-12-18T05:11:20;47.67;;;20.57;;
32894;SDS011;19251;49.484;8.260;2022-12-18T05:16:22;53.93;;;22.70;;
32894;SDS011;19251;49.484;8.260;2022-12-18T05:21:24;48.03;;;19.90;;
32894;SDS011;19251;49.484;8.260;2022-12-18T05:26:27;45.87;;;20.43;;
32894;SDS011;19251;49.484;8.260;2022-12-18T05:31:29;54.53;;;23.73;;
32894;SDS011;19251;49.484;8.260;2022-12-18T05:36:38;57.67;;;22.90;;
32894;SDS011;19251;49.484;8.260;2022-12-18T05:41:40;49.63;;;23.03;;
32894;SDS011;19251;49.484;8.260;2022-12-18T05:46:43;43.17;;;19.43;;
32894;SDS011;19251;49.484;8.260;2022-12-18T05:51:45;53.37;;;23.80;;
32894;SDS011;19251;49.484;8.260;2022-12-18T05:56:47;57.37;;;24.07;;
32894;SDS011;19251;49.484;8.260;2022-12-18T06:01:49;56.93;;;23.40;;
32894;SDS011;19251;49.484;8.260;2022-12-18T06:06:52;49.80;;;20.93;;
32894;SDS011;19251;49.484;8.260;2022-12-18T06:11:54;50.93;;;21.27;;
32894;SDS011;19251;49.484;8.260;2022-12-18T06:16:56;54.97;;;21.40;;
32894;SDS011;19251;49.484;8.260;2022-12-18T06:21:58;51.73;;;22.20;;
32894;SDS011;19251;49.484;8.260;2022-12-18T06:27:01;60.23;;;25.70;;
32894;SDS011;19251;49.484;8.260;2022-12-18T06:32:04;54.87;;;23.87;;
32894;SDS011;19251;49.484;8.260;2022-12-18T06:37:06;57.07;;;23.10;;
32894;SDS011;19251;49.484;8.260;2022-12-18T06:42:08;55.70;;;22.73;;
32894;SDS011;19251;49.484;8.260;2022-12-18T06:47:10;53.03;;;21.73;;
32894;SDS011;19251;49.484;8.260;2022-12-18T06:52:12;51.40;;;22.03;;
32894;SDS011;19251;49.484;8.260;2022-12-18T06:57:17;55.97;;;23.80;;
32894;SDS011;19251;49.484;8.260;2022-12-18T07:02:19;54.50;;;22.73;;
32894;SDS011;19251;49.484;8.260;2022-12-18T07:07:21;48.07;;;20.07;;
32894;SDS011;19251;49.484;8.260;2022-12-18T07:12:24;51.40;;;21.20;;
32894;SDS011;19251;49.484;8.260;2022-12-18T07:17:26;44.83;;;20.73;;
32894;SDS011;19251;49.484;8.260;2022-12-18T07:22:28;49.33;;;20.27;;
32894;SDS011;19251;49.484;8.260;2022-12-18T07:27:30;57.73;;;22.70;;
32894;SDS011;19251;49.484;8.260;2022-12-18T07:32:32;46.57;;;20.77;;
32894;SDS011;19251;49.484;8.260;2022-12-18T07:37:34;57.00;;;23.30;;
32894;SDS011;19251;49.484;8.260;2022-12-18T07:42:36;65.53;;;24.97;;
32894;SDS011;19251;49.484;8.260;2022-12-18T07:47:39;62.00;;;24.73;;
32894;SDS011;19251;49.484;8.260;2022-12-18T07:52:42;48.27;;;21.63;;
32894;SDS011;19251;49.484;8.260;2022-12-18T07:57:45;55.53;;;22.53;;
32894;SDS011;19251;49.484;8.260;2022-12-18T08:02:54;54.17;;;23.67;;
32894;SDS011;19251;49.484;8.260;2022-12-18T08:07:56;58.93;;;24.30;;
32894;SDS011;19251;49.484;8.260;2022-12-18T08:13:00;62.90;;;25.00;;
32894;SDS011;19251;49.484;8.260;2022-12-18T08:18:06;59.73;;;25.50;;
32894;SDS011;19251;49.484;8.260;2022-12-18T08:23:14;63.97;;;26.37;;
32894;SDS011;19251;49.484;8.260;2022-12-18T08:28:17;61.10;;;28.13;;
32894;SDS011;19251;49.484;8.260;2022-12-18T08:33:19;54.43;;;23.33;;
32894;SDS011;19251;49.484;8.260;2022-12-18T08:38:21;61.40;;;26.03;;
32894;SDS011;19251;49.484;8.260;2022-12-18T08:43:24;51.27;;;24.47;;
32894;SDS011;19251;49.484;8.260;2022-12-18T08:49:02;55.97;;;23.57;;
32894;SDS011;19251;49.484;8.260;2022-12-18T08:54:05;51.20;;;23.43;;
32894;SDS011;19251;49.484;8.260;2022-12-18T08:59:08;61.97;;;26.20;;
32894;SDS011;19251;49.484;8.260;2022-12-18T09:04:19;63.05;;;27.15;;
32894;SDS011;19251;49.484;8.260;2022-12-18T09:09:21;56.50;;;24.27;;
32894;SDS011;19251;49.484;8.260;2022-12-18T09:14:23;63.30;;;26.57;;
32894;SDS011;19251;49.484;8.260;2022-12-18T09:19:26;53.23;;;25.97;;
32894;SDS011;19251;49.484;8.260;2022-12-18T09:24:28;57.80;;;25.37;;
32894;SDS011;19251;49.484;8.260;2022-12-18T09:29:30;58.63;;;26.93;;
32894;SDS011;19251;49.484;8.260;2022-12-18T09:34:33;54.23;;;24.03;;
32894;SDS011;19251;49.484;8.260;2022-12-18T09:39:35;55.90;;;26.23;;
32894;SDS011;19251;49.484;8.260;2022-12-18T09:49:47;54.67;;;25.30;;
32894;SDS011;19251;49.484;8.260;2022-12-18T10:00:23;53.67;;;25.77;;
32894;SDS011;19251;49.484;8.260;2022-12-18T10:05:30;60.10;;;29.60;;
32894;SDS011;19251;49.484;8.260;2022-12-18T10:11:01;54.63;;;27.17;;
32894;SDS011;19251;49.484;8.260;2022-12-18T10:16:19;57.43;;;27.87;;
32894;SDS011;19251;49.484;8.260;2022-12-18T10:26:38;54.07;;;26.37;;
32894;SDS011;19251;49.484;8.260;2022-12-18T10:31:41;54.10;;;28.97;;
32894;SDS011;19251;49.484;8.260;2022-12-18T10:36:43;61.53;;;26.83;;
32894;SDS011;19251;49.484;8.260;2022-12-18T10:46:50;53.67;;;28.30;;
32894;SDS011;19251;49.484;8.260;2022-12-18T10:52:17;53.30;;;25.97;;
32894;SDS011;19251;49.484;8.260;2022-12-18T11:02:34;46.50;;;24.30;;
32894;SDS011;19251;49.484;8.260;2022-12-18T11:07:46;42.93;;;23.63;;
32894;SDS011;19251;49.484;8.260;2022-12-18T11:12:51;52.35;;;26.02;;
32894;SDS011;19251;49.484;8.260;2022-12-18T11:23:05;48.73;;;25.07;;
32894;SDS011;19251;49.484;8.260;2022-12-18T11:49:45;46.67;;;24.80;;
32894;SDS011;19251;49.484;8.260;2022-12-18T11:54:51;51.17;;;24.87;;
32894;SDS011;19251;49.484;8.260;2022-12-18T12:26:40;51.00;;;25.83;;
32894;SDS011;19251;49.484;8.260;2022-12-18T12:42:48;52.33;;;27.07;;
32894;SDS011;19251;49.484;8.260;2022-12-18T12:48:36;51.13;;;25.33;;
32894;SDS011;19251;49.484;8.260;2022-12-18T12:53:39;50.90;;;27.13;;
32894;SDS011;19251;49.484;8.260;2022-12-18T12:58:49;49.33;;;26.87;;
32894;SDS011;19251;49.484;8.260;2022-12-18T13:04:08;44.67;;;25.77;;
32894;SDS011;19251;49.484;8.260;2022-12-18T13:09:32;53.33;;;28.87;;
32894;SDS011;19251;49.484;8.260;2022-12-18T13:14:40;50.80;;;27.17;;
32894;SDS011;19251;49.484;8.260;2022-12-18T13:19:42;54.43;;;27.87;;
32894;SDS011;19251;49.484;8.260;2022-12-18T13:24:45;49.73;;;26.53;;
32894;SDS011;19251;49.484;8.260;2022-12-18T13:35:13;43.73;;;25.20;;
32894;SDS011;19251;49.484;8.260;2022-12-18T13:45:50;52.17;;;25.60;;
32894;SDS011;19251;49.484;8.260;2022-12-18T13:51:07;51.73;;;28.13;;
32894;SDS011;19251;49.484;8.260;2022-12-18T13:56:16;48.47;;;26.97;;
32894;SDS011;19251;49.484;8.260;2022-12-18T14:01:26;58.13;;;26.97;;
32894;SDS011;19251;49.484;8.260;2022-12-18T14:06:28;63.57;;;30.57;;
32894;SDS011;19251;49.484;8.260;2022-12-18T14:11:33;52.63;;;27.10;;
32894;SDS011;19251;49.484;8.260;2022-12-18T14:16:35;51.37;;;27.93;;
32894;SDS011;19251;49.484;8.260;2022-12-18T14:21:39;53.23;;;27.40;;
32894;SDS011;19251;49.484;8.260;2022-12-18T14:26:42;48.43;;;25.53;;
32894;SDS011;19251;49.484;8.260;2022-12-18T14:31:45;53.50;;;27.00;;
32894;SDS011;19251;49.484;8.260;2022-12-18T14:36:53;55.10;;;28.30;;
32894;SDS011;19251;49.484;8.260;2022-12-18T14:41:57;59.80;;;29.87;;
32894;SDS011;19251;49.484;8.260;2022-12-18T14:52:03;54.07;;;27.43;;
32894;SDS011;19251;49.484;8.260;2022-12-18T14:57:22;57.00;;;30.47;;
32894;SDS011;19251;49.484;8.260;2022-12-18T15:02:35;51.17;;;26.27;;
32894;SDS011;19251;49.484;8.260;2022-12-18T15:07:39;56.77;;;27.90;;
32894;SDS011;19251;49.484;8.260;2022-12-18T15:12:48;64.33;;;30.40;;
32894;SDS011;19251;49.484;8.260;2022-12-18T15:18:05;57.80;;;27.27;;
32894;SDS011;19251;49.484;8.260;2022-12-18T15:38:54;51.07;;;24.87;;
32894;SDS011;19251;49.484;8.260;2022-12-18T15:44:22;47.53;;;25.67;;
32894;SDS011;19251;49.484;8.260;2022-12-18T15:49:25;50.87;;;23.60;;
32894;SDS011;19251;49.484;8.260;2022-12-18T15:54:27;46.53;;;23.95;;
32894;SDS011;19251;49.484;8.260;2022-12-18T15:59:48;42.87;;;23.73;;
32894;SDS011;19251;49.484;8.260;2022-12-18T16:04:51;46.17;;;25.83;;
32894;SDS011;19251;49.484;8.260;2022-12-18T16:09:55;44.97;;;23.80;;
32894;SDS011;19251;49.484;8.260;2022-12-18T16:15:00;45.37;;;23.07;;
32894;SDS011;19251;49.484;8.260;2022-12-18T16:20:02;47.10;;;24.07;;
32894;SDS011;19251;49.484;8.260;2022-12-18T16:25:04;46.30;;;23.80;;
32894;SDS011;19251;49.484;8.260;2022-12-18T16:30:11;46.37;;;24.27;;
32894;SDS011;19251;49.484;8.260;2022-12-18T16:35:18;45.83;;;23.57;;
32894;SDS011;19251;49.484;8.260;2022-12-18T16:40:21;44.37;;;23.70;;
32894;SDS011;19251;49.484;8.260;2022-12-18T16:45:26;45.73;;;24.10;;
32894;SDS011;19251;49.484;8.260;2022-12-18T16:50:34;47.90;;;24.83;;
32894;SDS011;19251;49.484;8.260;2022-12-18T17:00:38;43.07;;;22.50;;
32894;SDS011;19251;49.484;8.260;2022-12-18T17:05:41;43.53;;;22.50;;
32894;SDS011;19251;49.484;8.260;2022-12-18T17:10:44;44.13;;;22.47;;
32894;SDS011;19251;49.484;8.260;2022-12-18T17:20:48;50.40;;;25.53;;
32894;SDS011;19251;49.484;8.260;2022-12-18T17:30:56;50.20;;;25.37;;
32894;SDS011;19251;49.484;8.260;2022-12-18T17:35:58;55.93;;;27.87;;
32894;SDS011;19251;49.484;8.260;2022-12-18T17:41:01;45.53;;;24.07;;
32894;SDS011;19251;49.484;8.260;2022-12-18T17:46:05;52.30;;;25.70;;
32894;SDS011;19251;49.484;8.260;2022-12-18T17:51:09;63.43;;;29.23;;
32894;SDS011;19251;49.484;8.260;2022-12-18T17:56:13;66.53;;;29.37;;
32894;SDS011;19251;49.484;8.260;2022-12-18T18:01:18;64.47;;;30.83;;
32894;SDS011;19251;49.484;8.260;2022-12-18T18:06:22;65.77;;;28.50;;
32894;SDS011;19251;49.484;8.260;2022-12-18T18:11:25;56.40;;;26.47;;
32894;SDS011;19251;49.484;8.260;2022-12-18T18:16:47;49.13;;;26.20;;
32894;SDS011;19251;49.484;8.260;2022-12-18T18:21:51;45.33;;;22.40;;
32894;SDS011;19251;49.484;8.260;2022-12-18T18:26:55;51.50;;;24.80;;
32894;SDS011;19251;49.484;8.260;2022-12-18T18:32:00;51.60;;;24.37;;
32894;SDS011;19251;49.484;8.260;2022-12-18T18:42:04;49.57;;;24.10;;
32894;SDS011;19251;49.484;8.260;2022-12-18T18:47:06;56.25;;;26.12;;
32894;SDS011;19251;49.484;8.260;2022-12-18T18:52:10;54.07;;;24.33;;
32894;SDS011;19251;49.484;8.260;2022-12-18T19:02:25;60.67;;;25.92;;
32894;SDS011;19251;49.484;8.260;2022-12-18T19:07:28;56.17;;;25.70;;
32894;SDS011;19251;49.484;8.260;2022-12-18T19:12:32;55.97;;;25.43;;
32894;SDS011;19251;49.484;8.260;2022-12-18T19:17:55;53.47;;;25.73;;
32894;SDS011;19251;49.484;8.260;2022-12-18T19:22:57;57.15;;;25.50;;
32894;SDS011;19251;49.484;8.260;2022-12-18T19:27:59;61.53;;;28.12;;
32894;SDS011;19251;49.484;8.260;2022-12-18T19:33:01;60.33;;;26.20;;
32894;SDS011;19251;49.484;8.260;2022-12-18T19:38:23;54.60;;;25.03;;
32894;SDS011;19251;49.484;8.260;2022-12-18T19:43:25;254.67;;;84.90;;
32894;SDS011;19251;49.484;8.260;2022-12-18T19:48:27;176.40;;;66.28;;
32894;SDS011;19251;49.484;8.260;2022-12-18T19:53:29;100.47;;;43.13;;
32894;SDS011;19251;49.484;8.260;2022-12-18T19:58:32;68.62;;;27.77;;
32894;SDS011;19251;49.484;8.260;2022-12-18T20:03:34;54.67;;;26.67;;
32894;SDS011;19251;49.484;8.260;2022-12-18T20:08:37;56.33;;;24.53;;
32894;SDS011;19251;49.484;8.260;2022-12-18T20:13:39;53.37;;;24.43;;
32894;SDS011;19251;49.484;8.260;2022-12-18T20:18:42;44.20;;;23.07;;
32894;SDS011;19251;49.484;8.260;2022-12-18T20:23:45;49.50;;;22.47;;
32894;SDS011;19251;49.484;8.260;2022-12-18T20:28:47;52.90;;;24.35;;
32894;SDS011;19251;49.484;8.260;2022-12-18T20:33:49;55.92;;;25.35;;
32894;SDS011;19251;49.484;8.260;2022-12-18T20:38:55;54.53;;;24.63;;
32894;SDS011;19251;49.484;8.260;2022-12-18T20:44:03;43.33;;;23.13;;
32894;SDS011;19251;49.484;8.260;2022-12-18T20:49:24;42.77;;;21.97;;
32894;SDS011;19251;49.484;8.260;2022-12-18T20:54:27;46.17;;;23.03;;
32894;SDS011;19251;49.484;8.260;2022-12-18T20:59:30;65.53;;;27.70;;
32894;SDS011;19251;49.484;8.260;2022-12-18T21:04:32;68.00;;;29.20;;
32894;SDS011;19251;49.484;8.260;2022-12-18T21:09:34;55.83;;;26.85;;
32894;SDS011;19251;49.484;8.260;2022-12-18T21:14:39;52.77;;;24.37;;
32894;SDS011;19251;49.484;8.260;2022-12-18T21:19:41;52.42;;;26.30;;
32894;SDS011;19251;49.484;8.260;2022-12-18T21:24:44;46.00;;;22.23;;
32894;SDS011;19251;49.484;8.260;2022-12-18T21:29:46;44.53;;;23.02;;
32894;SDS011;19251;49.484;8.260;2022-12-18T21:34:50;53.70;;;27.47;;
32894;SDS011;19251;49.484;8.260;2022-12-18T21:39:53;52.63;;;23.87;;
32894;SDS011;19251;49.484;8.260;2022-12-18T21:44:55;45.23;;;22.80;;
32894;SDS011;19251;49.484;8.260;2022-12-18T21:49:57;46.17;;;23.42;;
32894;SDS011;19251;49.484;8.260;2022-12-18T21:55:00;50.47;;;24.10;;
32894;SDS011;19251;49.484;8.260;2022-12-18T22:00:10;54.10;;;25.20;;
32894;SDS011;19251;49.484;8.260;2022-12-18T22:05:20;47.90;;;22.43;;
32894;SDS011;19251;49.484;8.260;2022-12-18T22:15:24;48.03;;;22.97;;
32894;SDS011;19251;49.484;8.260;2022-12-18T22:20:27;48.92;;;25.35;;
32894;SDS011;19251;49.484;8.260;2022-12-18T22:25:30;46.30;;;21.80;;
32894;SDS011;19251;49.484;8.260;2022-12-18T22:30:35;51.30;;;24.17;;
32894;SDS011;19251;49.484;8.260;2022-12-18T22:35:37;41.40;;;21.42;;
32894;SDS011;19251;49.484;8.260;2022-12-18T22:40:39;50.10;;;23.00;;
32894;SDS011;19251;49.484;8.260;2022-12-18T22:45:42;44.97;;;21.50;;
32894;SDS011;19251;49.484;8.260;2022-12-18T22:50:47;46.33;;;22.90;;
32894;SDS011;19251;49.484;8.260;2022-12-18T22:55:55;46.30;;;22.33;;
32894;SDS011;19251;49.484;8.260;2022-12-18T23:01:01;40.13;;;20.90;;
32894;SDS011;19251;49.484;8.260;2022-12-18T23:06:04;44.40;;;22.37;;
32894;SDS011;19251;49.484;8.260;2022-12-18T23:11:08;49.53;;;22.80;;
32894;SDS011;19251;49.484;8.260;2022-12-18T23:16:12;51.03;;;25.20;;
32894;SDS011;19251;49.484;8.260;2022-12-18T23:21:17;42.07;;;21.93;;
32894;SDS011;19251;49.484;8.260;2022-12-18T23:26:22;58.53;;;25.77;;
32894;SDS011;19251;49.484;8.260;2022-12-18T23:31:27;51.47;;;23.60;;
32894;SDS011;19251;49.484;8.260;2022-12-18T23:36:31;42.20;;;22.40;;
32894;SDS011;19251;49.484;8.260;2022-12-18T23:41:46;45.83;;;23.87;;
32894;SDS011;19251;49.484;8.260;2022-12-18T23:46:48;53.75;;;25.98;;
32894;SDS011;19251;49.484;8.260;2022-12-18T23:56:54;46.58;;;23.65;;
